Time;durP1;ratioP1;P1;durP2;ratioP2;P2;SDS_P1;SDS_P2;PMS_P1;PMS_P2;Temp;Humidity;BMP_temperature;BMP_pressure;BME280_temperature;BME280_humidity;BME280_pressure;Samples;Min_cycle;Max_cycle;Signal;HPM_P1;HPM_P2
2024/01/16 00:00:47;;;;;;;9.60;3.88;;;-0.80;99.90;;;;;;5033779;28;20539;-75
2024/01/16 00:03:13;;;;;;;11.52;3.97;;;-0.80;99.90;;;;;;5035829;28;20029;-76
2024/01/16 00:05:38;;;;;;;12.02;4.35;;;-0.80;99.90;;;;;;5037667;28;20025;-75
2024/01/16 00:08:04;;;;;;;7.32;3.70;;;-0.80;99.90;;;;;;5038899;28;20017;-75
2024/01/16 00:10:30;;;;;;;7.85;3.83;;;-0.80;99.90;;;;;;5039224;28;20032;-75
2024/01/16 00:12:55;;;;;;;8.25;3.60;;;-0.70;99.90;;;;;;5037374;28;20029;-75
2024/01/16 00:15:21;;;;;;;12.20;4.28;;;-0.70;99.90;;;;;;5037881;28;20013;-75
2024/01/16 00:17:48;;;;;;;6.45;3.17;;;-0.70;99.90;;;;;;5037651;28;20013;-75
2024/01/16 00:20:14;;;;;;;8.27;3.33;;;-0.70;99.90;;;;;;5041576;28;20037;-75
2024/01/16 00:22:41;;;;;;;8.23;4.00;;;-0.80;99.90;;;;;;5038678;28;20219;-77
2024/01/16 00:25:08;;;;;;;7.35;3.63;;;-0.70;99.90;;;;;;5034942;28;20030;-76
2024/01/16 00:27:34;;;;;;;6.47;3.78;;;-0.70;99.90;;;;;;5046038;28;20025;-76
2024/01/16 00:30:00;;;;;;;7.15;3.83;;;-0.70;99.90;;;;;;5038659;28;20028;-78
2024/01/16 00:32:26;;;;;;;9.73;4.10;;;-0.70;99.90;;;;;;5046312;28;20021;-76
2024/01/16 00:34:52;;;;;;;8.30;3.60;;;-0.70;99.90;;;;;;5055533;28;20029;-76
2024/01/16 00:37:18;;;;;;;8.82;4.25;;;-0.70;99.90;;;;;;5051543;28;20021;-75
2024/01/16 00:39:43;;;;;;;9.95;4.70;;;-0.80;99.90;;;;;;5044485;28;20116;-76
2024/01/16 00:42:09;;;;;;;8.90;3.70;;;-0.80;99.90;;;;;;5055137;28;20051;-76
2024/01/16 00:44:35;;;;;;;7.63;3.90;;;-0.90;99.90;;;;;;5052397;28;20991;-76
2024/01/16 00:47:01;;;;;;;10.98;4.20;;;-0.90;99.90;;;;;;5055171;28;20033;-76
2024/01/16 00:49:28;;;;;;;7.10;3.53;;;-0.90;99.90;;;;;;5067199;28;20056;-76
2024/01/16 00:51:54;;;;;;;9.18;4.22;;;-1.00;99.90;;;;;;5078278;28;20025;-76
2024/01/16 00:54:20;;;;;;;9.43;3.67;;;-1.00;99.90;;;;;;5067990;28;20033;-76
2024/01/16 00:56:47;;;;;;;8.70;3.50;;;-1.10;99.90;;;;;;5065445;28;20433;-75
2024/01/16 00:59:12;;;;;;;9.82;4.35;;;-1.10;99.90;;;;;;5055998;28;20079;-76
2024/01/16 01:01:38;;;;;;;8.27;3.60;;;-1.10;99.90;;;;;;5055038;28;20108;-75
2024/01/16 01:04:04;;;;;;;9.05;3.63;;;-1.10;99.90;;;;;;5055013;28;20029;-75
2024/01/16 01:06:30;;;;;;;10.38;4.53;;;-1.20;99.90;;;;;;5053274;28;20083;-77
2024/01/16 01:08:55;;;;;;;10.20;4.07;;;-1.20;99.90;;;;;;5043527;28;20441;-75
2024/01/16 01:11:21;;;;;;;8.50;4.18;;;-1.00;99.90;;;;;;5056153;28;20025;-76
2024/01/16 01:13:48;;;;;;;8.73;4.05;;;-1.00;99.90;;;;;;5041360;28;20025;-76
2024/01/16 01:16:14;;;;;;;7.35;3.75;;;-1.00;99.90;;;;;;5055323;28;20029;-76
2024/01/16 01:18:40;;;;;;;5.63;3.60;;;-1.00;99.90;;;;;;5032489;28;20368;-76
2024/01/16 01:21:07;;;;;;;9.57;3.80;;;-1.00;99.90;;;;;;5054922;28;20040;-76
2024/01/16 01:23:33;;;;;;;8.50;4.07;;;-1.10;99.90;;;;;;5052192;28;20132;-76
2024/01/16 01:25:58;;;;;;;7.75;3.83;;;-1.00;99.90;;;;;;5053475;28;20223;-75
2024/01/16 01:28:24;;;;;;;9.60;4.07;;;-0.90;99.90;;;;;;5050907;28;20067;-75
2024/01/16 01:30:51;;;;;;;7.93;4.50;;;-1.00;99.90;;;;;;5036259;28;20049;-74
2024/01/16 01:33:18;;;;;;;10.23;3.83;;;-1.00;99.90;;;;;;5047674;28;20013;-74
2024/01/16 01:35:44;;;;;;;8.75;3.65;;;-1.10;99.90;;;;;;5052561;28;20041;-75
2024/01/16 01:38:11;;;;;;;10.32;4.63;;;-1.10;99.90;;;;;;5045331;28;20032;-75
2024/01/16 01:40:38;;;;;;;7.93;4.15;;;-1.20;99.90;;;;;;5047151;28;20021;-75
2024/01/16 01:43:25;;;;;;;11.82;4.93;;;-1.20;99.90;;;;;;5049779;28;20021;-75
2024/01/16 01:46:00;;;;;;;7.97;3.70;;;-1.20;99.90;;;;;;5051500;28;20331;-75
2024/01/16 01:48:26;;;;;;;9.27;3.80;;;-1.20;99.90;;;;;;5047920;28;20029;-75
2024/01/16 01:50:53;;;;;;;8.85;3.75;;;-1.20;99.90;;;;;;5041823;28;20029;-75
2024/01/16 01:53:18;;;;;;;10.65;4.07;;;-1.20;99.90;;;;;;5039406;28;20058;-74
2024/01/16 01:55:47;;;;;;;8.77;4.22;;;-1.20;99.90;;;;;;5039761;28;20088;-76
2024/01/16 01:58:14;;;;;;;8.97;4.47;;;-1.20;99.90;;;;;;5049026;28;20347;-75
2024/01/16 02:00:40;;;;;;;9.65;4.50;;;-1.20;99.90;;;;;;5050022;28;20283;-75
2024/01/16 02:03:06;;;;;;;11.52;4.50;;;-1.20;99.90;;;;;;5042594;28;20029;-74
2024/01/16 02:05:34;;;;;;;7.78;3.75;;;-1.20;99.90;;;;;;5049897;28;20028;-75
2024/01/16 02:08:00;;;;;;;8.52;3.95;;;-1.20;99.90;;;;;;5043025;28;20028;-75
2024/01/16 02:10:28;;;;;;;14.32;4.80;;;-1.30;99.90;;;;;;5035024;28;20045;-75
2024/01/16 02:12:53;;;;;;;9.13;3.95;;;-1.30;99.90;;;;;;5043138;28;20067;-74
2024/01/16 02:15:19;;;;;;;8.45;3.70;;;-1.50;99.90;;;;;;5040797;28;20486;-74
2024/01/16 02:17:47;;;;;;;9.23;4.22;;;-1.60;99.90;;;;;;5039212;28;20059;-75
2024/01/16 02:20:12;;;;;;;8.15;4.35;;;-1.70;99.90;;;;;;5052010;28;20021;-74
2024/01/16 02:22:42;;;;;;;8.43;3.55;;;-1.80;99.90;;;;;;5054573;28;20866;-75
2024/01/16 02:25:08;;;;;;;;;;;-1.90;99.90;;;;;;5050100;28;20037;-75
2024/01/16 02:27:35;;;;;;;8.35;4.45;;;-1.90;99.90;;;;;;5045773;28;20080;-75
2024/01/16 02:30:00;;;;;;;9.05;4.40;;;-2.00;99.90;;;;;;5038995;28;20021;-76
2024/01/16 02:32:26;;;;;;;10.43;4.28;;;-2.00;99.90;;;;;;5042268;28;20540;-75
2024/01/16 02:34:52;;;;;;;9.60;4.20;;;-2.10;99.90;;;;;;5047612;28;20028;-75
2024/01/16 02:37:17;;;;;;;10.00;5.28;;;-2.10;99.90;;;;;;5034468;28;20485;-75
2024/01/16 02:39:43;;;;;;;11.10;4.35;;;-2.20;99.90;;;;;;5037496;28;20087;-76
2024/01/16 02:42:08;;;;;;;7.05;3.70;;;-2.20;99.90;;;;;;5045374;28;20410;-75
2024/01/16 02:44:34;;;;;;;7.68;4.00;;;-2.30;99.90;;;;;;5038922;28;20571;-76
2024/01/16 02:47:00;;;;;;;8.52;4.20;;;-2.30;99.90;;;;;;5033464;28;20034;-75
2024/01/16 02:49:26;;;;;;;7.97;4.30;;;-2.30;99.90;;;;;;5047869;28;20163;-74
2024/01/16 02:51:51;;;;;;;12.35;4.13;;;-2.40;99.90;;;;;;5046106;28;20030;-75
2024/01/16 02:54:17;;;;;;;9.32;4.07;;;-2.40;99.90;;;;;;5039831;28;20078;-74
2024/01/16 02:56:45;;;;;;;10.93;4.38;;;-2.30;99.90;;;;;;5049230;28;20033;-74
2024/01/16 02:59:11;;;;;;;11.50;4.43;;;-2.30;99.90;;;;;;5041080;28;20037;-74
2024/01/16 03:01:37;;;;;;;10.00;4.55;;;-2.40;99.90;;;;;;5037215;28;20402;-74
2024/01/16 03:04:02;;;;;;;9.27;4.60;;;-2.30;99.90;;;;;;5050270;28;20028;-74
2024/01/16 03:06:29;;;;;;;9.18;4.10;;;-2.20;99.90;;;;;;5041587;28;20033;-74
2024/01/16 03:08:56;;;;;;;10.27;3.90;;;-2.20;99.90;;;;;;5046249;28;20040;-74
2024/01/16 03:11:21;;;;;;;7.72;4.13;;;-2.20;99.90;;;;;;5047813;28;20013;-73
2024/01/16 03:13:49;;;;;;;10.20;4.32;;;-2.20;99.90;;;;;;5048621;28;20024;-73
2024/01/16 03:16:15;;;;;;;6.97;4.20;;;-2.10;99.90;;;;;;5049335;28;20074;-74
2024/01/16 03:18:41;;;;;;;8.32;3.97;;;-2.10;99.90;;;;;;5048916;28;20414;-73
2024/01/16 03:21:07;;;;;;;8.75;4.07;;;-2.10;99.90;;;;;;5035316;28;20099;-74
2024/01/16 03:23:42;;;;;;;8.02;4.20;;;-2.10;99.90;;;;;;5043218;28;20084;-74
2024/01/16 03:26:12;;;;;;;7.45;4.20;;;-2.20;99.90;;;;;;5049389;28;20029;-74
2024/01/16 03:28:38;;;;;;;11.80;4.47;;;-2.20;99.90;;;;;;5046467;28;20041;-73
2024/01/16 03:31:04;;;;;;;9.25;3.78;;;-2.10;99.90;;;;;;5048632;28;20021;-73
2024/01/16 03:33:29;;;;;;;9.18;4.45;;;-2.10;99.90;;;;;;5047274;28;20017;-74
2024/01/16 03:35:55;;;;;;;10.93;4.50;;;-2.10;99.90;;;;;;5042885;28;20044;-74
2024/01/16 03:38:20;;;;;;;7.10;3.58;;;-2.00;99.90;;;;;;5038734;28;20021;-73
2024/01/16 03:40:46;;;;;;;8.32;4.00;;;-2.00;99.90;;;;;;5048706;28;20039;-74
2024/01/16 03:43:12;;;;;;;6.28;4.05;;;-2.10;99.90;;;;;;5046968;28;20059;-74
2024/01/16 03:45:37;;;;;;;8.55;3.63;;;-2.20;99.90;;;;;;5047065;28;20378;-74
2024/01/16 03:48:03;;;;;;;13.63;4.28;;;-2.20;99.90;;;;;;5045255;28;20398;-74
2024/01/16 03:50:29;;;;;;;9.13;4.57;;;-2.30;99.90;;;;;;5047589;28;20032;-76
2024/01/16 03:52:55;;;;;;;8.45;4.22;;;-2.40;99.90;;;;;;5048647;28;20021;-74
2024/01/16 03:55:20;;;;;;;9.13;4.22;;;-2.40;99.90;;;;;;5045066;28;20132;-74
2024/01/16 03:57:46;;;;;;;6.93;3.25;;;-2.50;99.90;;;;;;5043769;28;20032;-74
2024/01/16 04:00:12;;;;;;;8.70;4.13;;;-2.50;99.90;;;;;;5047330;28;20071;-74
2024/01/16 04:02:38;;;;;;;9.82;3.83;;;-2.50;99.90;;;;;;5044332;28;20025;-73
2024/01/16 04:05:05;;;;;;;12.82;4.88;;;-2.60;99.90;;;;;;5048588;28;20547;-74
2024/01/16 04:07:31;;;;;;;11.25;4.18;;;-2.70;99.90;;;;;;5047323;28;20086;-74
2024/01/16 04:09:56;;;;;;;7.88;3.97;;;-2.70;99.90;;;;;;5038774;28;20108;-74
2024/01/16 04:12:22;;;;;;;8.00;3.70;;;-2.80;99.90;;;;;;5047094;28;20032;-73
2024/01/16 04:14:48;;;;;;;10.30;3.97;;;-2.90;99.90;;;;;;5048250;28;20040;-73
2024/01/16 04:17:13;;;;;;;12.27;4.38;;;-2.90;99.90;;;;;;5048720;28;20074;-74
2024/01/16 04:19:40;;;;;;;8.27;3.67;;;-2.90;99.90;;;;;;5045155;28;20060;-73
2024/01/16 04:22:06;;;;;;;10.38;4.90;;;-2.90;99.90;;;;;;5048381;28;20088;-75
2024/01/16 04:24:32;;;;;;;6.32;3.50;;;-3.00;99.90;;;;;;5046869;28;20116;-76
2024/01/16 04:26:58;;;;;;;9.95;4.05;;;-3.00;99.90;;;;;;5048694;28;20039;-74
2024/01/16 04:29:23;;;;;;;8.95;3.65;;;-3.00;99.90;;;;;;5031628;28;20029;-76
2024/01/16 04:31:49;;;;;;;5.97;3.33;;;-3.10;99.90;;;;;;5040273;28;20033;-73
2024/01/16 04:34:15;;;;;;;6.85;4.15;;;-3.00;99.90;;;;;;5045835;28;20032;-75
2024/01/16 04:36:40;;;;;;;8.70;3.78;;;-3.00;99.90;;;;;;5046560;28;20516;-75
2024/01/16 04:39:06;;;;;;;9.18;3.80;;;-2.90;99.90;;;;;;5045113;28;20112;-75
2024/01/16 04:41:32;;;;;;;8.93;3.65;;;-2.90;99.90;;;;;;5047234;28;20036;-74
2024/01/16 04:43:57;;;;;;;11.13;3.95;;;-2.90;99.90;;;;;;5044138;28;20451;-75
2024/01/16 04:46:23;;;;;;;10.77;3.47;;;-2.90;99.90;;;;;;5030031;28;20038;-76
2024/01/16 04:48:50;;;;;;;11.35;4.55;;;-2.90;99.90;;;;;;5042921;28;20120;-75
2024/01/16 04:51:17;;;;;;;11.45;4.10;;;-2.90;99.90;;;;;;5031710;28;20021;-75
2024/01/16 04:53:43;;;;;;;9.82;3.92;;;-2.90;99.90;;;;;;5033902;28;20021;-75
2024/01/16 04:56:09;;;;;;;6.85;3.60;;;-3.00;99.90;;;;;;5028673;28;20379;-76
2024/01/16 04:58:34;;;;;;;10.10;3.97;;;-3.00;99.90;;;;;;5037308;28;20082;-77
2024/01/16 05:01:00;;;;;;;5.90;3.45;;;-3.00;99.90;;;;;;5037083;28;20136;-76
2024/01/16 05:03:26;;;;;;;9.20;4.13;;;-3.00;99.90;;;;;;5046344;28;20028;-76
2024/01/16 05:05:52;;;;;;;7.10;3.42;;;-3.00;99.90;;;;;;5048366;28;20032;-75
2024/01/16 05:08:17;;;;;;;10.43;4.43;;;-3.00;99.90;;;;;;5039017;28;20495;-75
2024/01/16 05:10:43;;;;;;;9.18;4.05;;;-3.00;99.90;;;;;;5031971;28;20030;-75
2024/01/16 05:13:11;;;;;;;9.55;3.50;;;-3.00;99.90;;;;;;5033266;28;20031;-75
2024/01/16 05:15:37;;;;;;;9.30;3.50;;;-3.10;99.90;;;;;;5045677;28;20017;-75
2024/01/16 05:18:04;;;;;;;7.80;3.63;;;-3.10;99.90;;;;;;5041925;28;20035;-76
2024/01/16 05:20:29;;;;;;;6.00;3.25;;;-3.00;99.90;;;;;;5043266;28;20044;-75
2024/01/16 05:22:56;;;;;;;9.32;3.55;;;-3.00;99.90;;;;;;5047490;28;20050;-76
2024/01/16 05:25:23;;;;;;;9.65;3.47;;;-3.00;99.90;;;;;;5044152;28;20108;-75
2024/01/16 05:27:51;;;;;;;7.40;3.42;;;-3.00;99.90;;;;;;5048830;28;20067;-76
2024/01/16 05:30:17;;;;;;;10.60;3.75;;;-3.00;99.90;;;;;;5050459;28;20478;-76
2024/01/16 05:32:42;;;;;;;9.20;3.92;;;-3.00;99.90;;;;;;5050387;28;20021;-77
2024/01/16 05:35:09;;;;;;;9.73;3.97;;;-2.90;99.90;;;;;;5051869;28;20022;-77
2024/01/16 05:37:35;;;;;;;6.95;3.85;;;-2.90;99.90;;;;;;5049492;28;20160;-77
2024/01/16 05:40:03;;;;;;;8.43;3.80;;;-2.90;99.90;;;;;;5050167;28;20041;-76
2024/01/16 05:42:29;;;;;;;9.75;3.05;;;-2.90;99.90;;;;;;5043094;28;20028;-76
2024/01/16 05:44:55;;;;;;;10.80;3.63;;;-2.90;99.90;;;;;;5050642;28;20036;-76
2024/01/16 05:47:24;;;;;;;8.05;3.78;;;-2.90;99.90;;;;;;5031414;28;20021;-76
2024/01/16 05:49:49;;;;;;;9.05;4.28;;;-3.00;99.90;;;;;;5039941;28;20017;-75
2024/01/16 05:52:17;;;;;;;5.28;3.38;;;-3.00;99.90;;;;;;5035049;28;20497;-74
2024/01/16 05:54:43;;;;;;;7.97;3.63;;;-3.00;99.90;;;;;;5044188;28;20078;-76
2024/01/16 05:57:08;;;;;;;8.45;3.60;;;-3.00;99.90;;;;;;5038555;28;20018;-77
2024/01/16 05:59:34;;;;;;;7.47;3.25;;;-3.10;99.90;;;;;;5037663;28;20021;-77
2024/01/16 06:01:59;;;;;;;7.68;3.67;;;-3.10;99.90;;;;;;5051148;28;20021;-76
2024/01/16 06:04:25;;;;;;;9.45;3.88;;;-3.10;99.90;;;;;;5051430;28;20040;-78
2024/01/16 06:06:51;;;;;;;9.40;3.70;;;-3.10;99.90;;;;;;5072722;28;20035;-80
2024/01/16 06:09:16;;;;;;;7.47;3.70;;;-3.10;99.90;;;;;;5063886;28;20091;-81
2024/01/16 06:11:42;;;;;;;9.05;3.75;;;-3.10;99.90;;;;;;5040578;28;20383;-81
2024/01/16 06:14:09;;;;;;;7.10;3.40;;;-3.10;99.90;;;;;;5043603;28;20072;-78
2024/01/16 06:16:37;;;;;;;7.70;3.65;;;-3.00;99.90;;;;;;5047939;28;20329;-79
2024/01/16 06:19:05;;;;;;;7.78;3.20;;;-3.00;99.90;;;;;;5047958;28;20095;-80
2024/01/16 06:21:32;;;;;;;8.73;3.88;;;-2.90;99.90;;;;;;5043139;28;20025;-79
2024/01/16 06:23:57;;;;;;;8.30;3.90;;;-2.90;99.90;;;;;;5039164;28;20135;-77
2024/01/16 06:26:24;;;;;;;8.75;4.22;;;-2.90;99.90;;;;;;5045480;28;20492;-79
2024/01/16 06:28:50;;;;;;;10.10;3.72;;;-2.90;99.90;;;;;;5050221;28;20107;-76
2024/01/16 06:31:16;;;;;;;10.57;3.25;;;-2.80;99.90;;;;;;5034075;28;20596;-79
2024/01/16 06:33:42;;;;;;;10.80;3.35;;;-2.80;99.90;;;;;;5047405;28;20040;-78
2024/01/16 06:36:08;;;;;;;7.60;3.55;;;-2.80;99.90;;;;;;5053556;28;20021;-78
2024/01/16 06:38:33;;;;;;;8.73;3.10;;;-2.90;99.90;;;;;;5049780;28;20033;-76
2024/01/16 06:41:00;;;;;;;7.75;3.53;;;-2.80;99.90;;;;;;5051268;28;20036;-76
2024/01/16 06:43:27;;;;;;;8.23;3.42;;;-2.80;99.90;;;;;;5043905;28;20379;-76
2024/01/16 06:45:53;;;;;;;7.97;4.35;;;-2.80;99.90;;;;;;5065327;28;20025;-79
2024/01/16 06:48:19;;;;;;;7.40;3.22;;;-2.70;99.90;;;;;;5061504;28;20085;-78
2024/01/16 06:50:44;;;;;;;5.00;2.80;;;-2.60;99.90;;;;;;5074493;28;20120;-80
2024/01/16 06:53:13;;;;;;;8.38;3.33;;;-2.60;99.90;;;;;;5041644;28;20095;-81
2024/01/16 06:55:39;;;;;;;7.95;2.72;;;-2.60;99.90;;;;;;5036290;28;20052;-81
2024/01/16 06:58:05;;;;;;;7.90;2.92;;;-2.50;99.90;;;;;;5042244;28;20029;-82
2024/01/16 07:00:31;;;;;;;10.07;3.13;;;-2.40;99.90;;;;;;5034173;28;20083;-79
2024/01/16 07:02:57;;;;;;;6.85;2.83;;;-2.50;99.90;;;;;;5039091;28;20039;-78
2024/01/16 07:05:23;;;;;;;9.98;3.67;;;-2.50;99.90;;;;;;5039356;28;20025;-78
2024/01/16 07:07:49;;;;;;;6.28;2.95;;;-2.40;99.90;;;;;;5034096;28;20390;-79
2024/01/16 07:10:21;;;;;;;6.72;3.10;;;-2.40;99.90;;;;;;5033218;28;20028;-83
2024/01/16 07:12:49;;;;;;;8.10;3.05;;;-2.40;99.90;;;;;;5040608;28;20043;-83
2024/01/16 07:15:15;;;;;;;12.05;2.70;;;-2.40;99.90;;;;;;5035662;28;20396;-83
2024/01/16 07:17:41;;;;;;;6.72;2.90;;;-2.50;99.90;;;;;;5039912;28;20379;-82
2024/01/16 07:20:07;;;;;;;7.35;2.30;;;-2.40;99.90;;;;;;5042222;28;20028;-82
2024/01/16 07:22:34;;;;;;;10.25;2.70;;;-2.40;99.90;;;;;;5046383;28;20080;-81
2024/01/16 07:25:00;;;;;;;6.55;3.08;;;-2.40;99.90;;;;;;5038631;28;20691;-85
2024/01/16 07:27:26;;;;;;;7.32;3.10;;;-2.40;99.90;;;;;;5012170;28;20564;-83
2024/01/16 07:29:51;;;;;;;11.55;3.08;;;-2.40;99.90;;;;;;5020592;28;20045;-82
2024/01/16 07:32:18;;;;;;;8.88;2.70;;;-2.50;99.90;;;;;;5039239;28;20494;-83
2024/01/16 07:34:44;;;;;;;6.00;2.80;;;-2.60;99.90;;;;;;5037138;28;20099;-85
2024/01/16 07:37:11;;;;;;;7.10;2.35;;;-2.60;99.90;;;;;;5043604;28;20601;-84
2024/01/16 07:39:38;;;;;;;6.45;3.00;;;-2.60;99.90;;;;;;5035918;28;20032;-85
2024/01/16 07:42:05;;;;;;;17.17;3.03;;;-2.50;99.90;;;;;;5043385;28;20120;-86
2024/01/16 07:44:31;;;;;;;6.28;2.50;;;-2.50;99.90;;;;;;5006784;28;20053;-82
2024/01/16 07:46:56;;;;;;;8.25;2.35;;;-2.40;99.90;;;;;;5049173;28;20370;-85
2024/01/16 07:49:23;;;;;;;7.55;2.35;;;-2.40;99.90;;;;;;5044485;28;20048;-81
2024/01/16 07:51:49;;;;;;;5.75;2.40;;;-2.40;99.90;;;;;;5044920;28;20073;-82
2024/01/16 07:54:15;;;;;;;14.13;2.83;;;-2.30;99.90;;;;;;5043722;28;20430;-84
2024/01/16 07:56:41;;;;;;;5.40;2.50;;;-2.20;99.90;;;;;;5034040;28;20415;-82
2024/01/16 07:59:15;;;;;;;5.32;2.78;;;-2.20;99.90;;;;;;5049513;28;20449;-75
2024/01/16 08:01:40;;;;;;;6.75;2.53;;;-2.20;99.90;;;;;;5035562;28;20482;-75
2024/01/16 08:04:06;;;;;;;7.22;3.50;;;-2.10;99.90;;;;;;5015389;28;20038;-75
2024/01/16 08:06:31;;;;;;;8.18;2.60;;;-2.10;99.90;;;;;;5032281;28;20029;-76
2024/01/16 08:08:58;;;;;;;4.68;2.40;;;-2.00;99.90;;;;;;5040785;28;20410;-76
2024/01/16 08:11:24;;;;;;;6.65;3.03;;;-1.90;99.90;;;;;;5042349;28;20037;-76
2024/01/16 08:13:50;;;;;;;4.32;2.40;;;-1.90;99.90;;;;;;5040425;28;20029;-76
2024/01/16 08:16:15;;;;;;;9.13;2.75;;;-1.80;99.90;;;;;;5046436;28;20049;-76
2024/01/16 08:18:43;;;;;;;5.47;2.45;;;-1.70;99.90;;;;;;5039021;28;20041;-76
2024/01/16 08:21:09;;;;;;;4.70;2.67;;;-1.60;99.90;;;;;;5041796;28;20052;-75
2024/01/16 08:23:34;;;;;;;5.07;2.00;;;-1.50;99.90;;;;;;5047094;28;20041;-75
2024/01/16 08:26:00;;;;;;;5.80;2.25;;;-1.40;99.90;;;;;;5035358;28;20018;-76
2024/01/16 08:28:26;;;;;;;7.70;2.30;;;-1.30;99.90;;;;;;5041589;28;20037;-75
2024/01/16 08:30:52;;;;;;;7.03;2.58;;;-1.20;99.90;;;;;;5044578;28;20034;-75
2024/01/16 08:33:19;;;;;;;6.68;3.03;;;-1.20;99.90;;;;;;5039621;28;20028;-75
2024/01/16 08:35:45;;;;;;;7.25;2.80;;;-1.10;99.90;;;;;;5030897;28;20060;-76
2024/01/16 08:38:11;;;;;;;5.18;2.75;;;-1.00;99.90;;;;;;5040168;28;20045;-75
2024/01/16 08:40:36;;;;;;;17.10;2.90;;;-0.90;99.90;;;;;;5039323;28;20052;-75
2024/01/16 08:43:03;;;;;;;6.05;2.55;;;-0.90;99.90;;;;;;5034658;28;20034;-74
2024/01/16 08:45:29;;;;;;;7.90;2.92;;;-0.80;99.90;;;;;;5040815;28;20406;-75
2024/01/16 08:47:55;;;;;;;7.38;2.60;;;-0.80;99.90;;;;;;5043817;28;20029;-75
2024/01/16 08:50:20;;;;;;;6.93;2.50;;;-0.70;99.90;;;;;;5038808;28;20037;-75
2024/01/16 08:52:46;;;;;;;7.45;3.10;;;-0.70;99.90;;;;;;5036426;28;20028;-75
2024/01/16 08:55:12;;;;;;;7.32;2.63;;;-0.70;99.90;;;;;;5049190;28;20029;-75
2024/01/16 08:57:37;;;;;;;10.32;3.10;;;-0.60;99.90;;;;;;5044208;28;20388;-75
2024/01/16 09:00:05;;;;;;;4.70;2.65;;;-0.60;99.90;;;;;;5044154;28;20078;-75
2024/01/16 09:02:30;;;;;;;7.10;2.58;;;-0.50;99.90;;;;;;5022916;28;20421;-74
2024/01/16 09:04:58;;;;;;;6.72;2.83;;;-0.40;99.90;;;;;;5047413;28;20032;-75
2024/01/16 09:07:24;;;;;;;4.43;1.98;;;-0.30;99.90;;;;;;5043580;28;20110;-75
2024/01/16 09:09:50;;;;;;;4.72;2.38;;;-0.30;99.90;;;;;;5037046;28;20047;-74
2024/01/16 09:12:17;;;;;;;5.10;2.38;;;-0.30;99.90;;;;;;5048007;28;20146;-76
2024/01/16 09:14:44;;;;;;;6.40;2.63;;;-0.30;99.90;;;;;;5046372;28;20033;-75
2024/01/16 09:17:10;;;;;;;8.40;2.35;;;-0.20;99.90;;;;;;5045271;28;20035;-75
2024/01/16 09:19:36;;;;;;;5.85;2.10;;;-0.20;99.90;;;;;;5036556;28;20291;-74
2024/01/16 09:22:03;;;;;;;9.18;2.78;;;-0.10;99.90;;;;;;5047843;28;20059;-74
2024/01/16 09:24:28;;;;;;;8.18;2.70;;;-0.10;99.90;;;;;;5049047;28;20029;-74
2024/01/16 09:26:54;;;;;;;4.25;2.35;;;0.00;99.90;;;;;;5043494;28;20078;-74
2024/01/16 09:29:21;;;;;;;9.07;2.45;;;0.00;99.90;;;;;;5045324;28;20079;-75
2024/01/16 09:31:47;;;;;;;9.80;2.10;;;0.00;99.90;;;;;;5045817;28;20389;-75
2024/01/16 09:34:13;;;;;;;6.72;2.15;;;0.20;99.90;;;;;;5036080;28;20021;-75
2024/01/16 09:36:40;;;;;;;5.72;2.45;;;0.20;99.90;;;;;;5042529;28;20491;-75
2024/01/16 09:39:13;;;;;;;7.68;2.63;;;0.30;99.90;;;;;;5050256;28;20062;-74
2024/01/16 09:41:39;;;;;;;7.07;2.42;;;0.40;99.90;;;;;;5042004;28;20111;-74
2024/01/16 09:44:06;;;;;;;5.38;2.75;;;0.40;99.90;;;;;;5034061;28;20132;-74
2024/01/16 09:46:34;;;;;;;7.22;2.60;;;0.50;99.90;;;;;;5042314;28;20029;-75
2024/01/16 09:49:02;;;;;;;9.95;2.72;;;0.60;99.90;;;;;;5040810;28;20212;-74
2024/01/16 09:51:28;;;;;;;6.20;2.25;;;0.70;99.90;;;;;;5047846;28;20047;-72
2024/01/16 09:53:53;;;;;;;6.28;2.65;;;0.90;99.90;;;;;;5036963;28;20474;-73
2024/01/16 09:56:25;;;;;;;10.18;3.00;;;1.10;99.90;;;;;;5051961;28;20091;-75
2024/01/16 09:58:58;;;;;;;9.25;3.28;;;1.30;99.90;;;;;;5041726;28;20113;-71
2024/01/16 10:01:26;;;;;;;11.65;2.90;;;1.40;99.90;;;;;;5033704;28;20500;-71
2024/01/16 10:03:59;;;;;;;5.03;2.50;;;1.50;99.90;;;;;;5045775;28;20020;-72
2024/01/16 10:06:27;;;;;;;5.45;2.58;;;1.50;99.90;;;;;;5040862;28;20025;-73
2024/01/16 10:08:53;;;;;;;4.88;2.63;;;1.50;99.90;;;;;;5035679;28;20024;-76
2024/01/16 10:11:19;;;;;;;9.98;2.95;;;1.60;99.90;;;;;;5045451;28;20465;-76
2024/01/16 10:13:46;;;;;;;7.45;2.78;;;1.80;99.90;;;;;;5048582;28;20025;-77
2024/01/16 10:16:12;;;;;;;7.03;3.40;;;1.90;99.90;;;;;;5044139;28;20036;-77
2024/01/16 10:18:39;;;;;;;8.05;3.22;;;2.00;99.90;;;;;;5049418;28;20029;-77
2024/01/16 10:21:05;;;;;;;8.98;2.83;;;2.10;99.90;;;;;;5039564;28;20030;-77
2024/01/16 10:23:35;;;;;;;8.23;2.58;;;2.20;99.90;;;;;;5044005;28;20120;-77
2024/01/16 10:26:20;;;;;;;4.55;2.28;;;2.30;99.90;;;;;;5043532;28;20025;-75
2024/01/16 10:28:46;;;;;;;7.97;2.67;;;2.40;99.90;;;;;;5036892;28;20033;-84
2024/01/16 10:31:16;;;;;;;6.85;2.20;;;2.40;99.90;;;;;;5036748;28;20025;-83
2024/01/16 10:33:42;;;;;;;7.95;2.45;;;2.40;99.90;;;;;;5044686;28;20033;-82
2024/01/16 10:36:10;;;;;;;6.35;2.47;;;2.40;99.90;;;;;;5040071;28;20035;-78
2024/01/16 10:38:39;;;;;;;5.63;2.70;;;2.50;99.90;;;;;;5033916;28;20316;-80
2024/01/16 10:41:25;;;;;;;7.43;2.30;;;2.50;99.90;;;;;;5047541;28;20029;-78
2024/01/16 10:44:07;;;;;;;12.82;3.53;;;2.40;99.90;;;;;;5037041;28;20111;-91
2024/01/16 10:46:33;;;;;;;9.15;3.40;;;2.50;99.90;;;;;;5031933;28;20025;-84
2024/01/16 10:49:00;;;;;;;7.13;3.58;;;2.40;99.90;;;;;;5044129;28;20159;-83
2024/01/16 10:51:28;;;;;;;13.57;4.53;;;2.40;99.90;;;;;;5044874;28;20026;-80
2024/01/16 10:54:05;;;;;;;12.90;3.60;;;2.50;99.90;;;;;;5059463;28;20049;-78
2024/01/16 10:56:31;;;;;;;11.95;3.63;;;2.60;99.90;;;;;;5033182;28;20497;-81
2024/01/16 10:59:33;;;;;;;11.90;3.35;;;2.70;99.90;;;;;;5045987;28;20036;-78
2024/01/16 11:02:03;;;;;;;11.02;3.40;;;2.60;99.90;;;;;;4983156;28;20092;-86
2024/01/16 11:04:29;;;;;;;9.07;3.83;;;2.60;99.90;;;;;;4970437;28;20130;-79
2024/01/16 11:06:56;;;;;;;11.40;3.67;;;2.50;99.90;;;;;;4966104;28;20030;-81
2024/01/16 11:09:21;;;;;;;8.05;3.90;;;2.50;99.90;;;;;;4983343;28;20102;-81
2024/01/16 11:11:49;;;;;;;15.00;5.32;;;2.40;99.90;;;;;;4987845;28;20097;-80
2024/01/16 11:14:17;;;;;;;18.02;4.50;;;2.40;99.90;;;;;;4988122;28;20034;-79
2024/01/16 11:16:46;;;;;;;7.78;3.90;;;2.30;99.90;;;;;;4978728;28;20027;-80
2024/01/16 11:19:13;;;;;;;7.47;3.55;;;2.20;99.90;;;;;;4982532;28;20038;-80
2024/01/16 11:21:41;;;;;;;7.60;3.75;;;2.20;99.90;;;;;;4987745;28;20030;-81
2024/01/16 11:24:07;;;;;;;7.38;3.92;;;2.20;99.90;;;;;;4977857;28;20054;-81
2024/01/16 11:26:36;;;;;;;15.23;3.63;;;2.20;99.90;;;;;;4987428;28;20049;-78
2024/01/16 11:29:26;;;;;;;7.63;3.35;;;2.20;99.90;;;;;;4993045;28;20180;-88
2024/01/16 11:31:52;;;;;;;;;;;2.30;99.90;;;;;;4986567;28;20027;-80
2024/01/16 11:34:40;;;;;;;6.50;2.88;;;2.30;99.90;;;;;;4957598;28;19928;-77
2024/01/16 11:37:07;;;;;;;9.48;3.90;;;2.20;99.90;;;;;;4980120;28;20045;-80
2024/01/16 11:39:34;;;;;;;12.50;3.50;;;2.20;99.90;;;;;;5029773;28;20040;-80
2024/01/16 11:42:03;;;;;;;12.93;3.47;;;2.10;99.90;;;;;;5042618;28;20065;-80
2024/01/16 11:44:46;;;;;;;7.25;3.38;;;2.10;99.90;;;;;;5038938;28;20032;-83
2024/01/16 11:47:23;;;;;;;11.75;4.05;;;2.00;99.90;;;;;;5042826;28;20032;-83
2024/01/16 11:49:51;;;;;;;7.47;3.17;;;2.00;99.90;;;;;;5038136;28;20032;-80
2024/01/16 11:52:44;;;;;;;7.20;3.45;;;2.00;99.90;;;;;;5036198;28;20547;-79
2024/01/16 11:55:32;;;;;;;7.75;3.28;;;2.10;99.90;;;;;;5028576;28;20033;-79
2024/01/16 11:58:37;;;;;;;7.03;3.13;;;2.20;99.90;;;;;;5032363;28;20040;-78
2024/01/16 12:01:05;;;;;;;7.82;2.80;;;2.20;99.90;;;;;;5043039;28;20025;-79
2024/01/16 12:03:31;;;;;;;8.73;2.88;;;2.20;99.90;;;;;;5040267;28;20033;-81
2024/01/16 12:06:00;;;;;;;4.40;2.00;;;2.20;99.90;;;;;;5037281;28;20508;-80
2024/01/16 12:08:28;;;;;;;6.10;1.98;;;2.20;99.90;;;;;;5029194;28;20087;-81
2024/01/16 12:10:54;;;;;;;5.93;1.75;;;2.30;99.90;;;;;;5050488;28;20017;-81
2024/01/16 12:13:19;;;;;;;5.25;1.33;;;2.40;99.90;;;;;;5040692;28;20028;-82
2024/01/16 12:15:46;;;;;;;7.28;2.08;;;2.40;99.70;;;;;;5038646;28;20071;-81
2024/01/16 12:18:18;;;;;;;14.90;2.10;;;2.50;99.60;;;;;;5037763;28;20017;-82
2024/01/16 12:20:45;;;;;;;8.93;1.80;;;2.50;99.80;;;;;;5048692;28;20033;-80
2024/01/16 12:23:34;;;;;;;3.67;1.23;;;2.60;99.10;;;;;;5053352;28;20113;-82
2024/01/16 12:26:03;;;;;;;3.70;1.73;;;2.50;98.80;;;;;;5047916;28;20026;-83
2024/01/16 12:28:29;;;;;;;6.93;1.90;;;2.50;98.70;;;;;;5043990;28;20028;-85
2024/01/16 12:30:54;;;;;;;3.30;1.17;;;2.40;99.20;;;;;;5045079;28;20056;-78
2024/01/16 12:33:23;;;;;;;19.50;2.17;;;2.40;98.70;;;;;;5044479;28;20112;-83
2024/01/16 12:35:49;;;;;;;7.70;1.92;;;2.40;99.10;;;;;;5038191;28;20561;-83
2024/01/16 12:38:16;;;;;;;2.50;1.13;;;2.40;99.10;;;;;;5039009;28;20079;-80
2024/01/16 12:40:49;;;;;;;7.22;1.58;;;2.40;98.90;;;;;;5042425;28;20079;-81
2024/01/16 12:43:18;;;;;;;10.77;2.25;;;2.40;98.70;;;;;;5038845;28;20104;-81
2024/01/16 12:45:45;;;;;;;5.68;1.48;;;2.40;98.60;;;;;;5039319;28;20014;-80
2024/01/16 12:48:12;;;;;;;10.23;2.00;;;2.40;98.40;;;;;;5046383;28;20044;-80